Time;durP1;ratioP1;P1;durP2;ratioP2;P2;SDS_P1;SDS_P2;PMS_P1;PMS_P2;Temp;Humidity;BMP_temperature;BMP_pressure;BME280_temperature;BME280_humidity;BME280_pressure;Samples;Min_cycle;Max_cycle;Signal;HPM_P1;HPM_P2
2023/12/30 00:02:24;;;;;;;1.50;1.13;;;12.60;96.60;;;;;;963769;144;27338;-83
2023/12/30 00:04:51;;;;;;;3.53;1.27;;;12.60;96.60;;;;;;962974;145;27351;-83
2023/12/30 00:07:17;;;;;;;1.50;1.40;;;12.60;96.60;;;;;;962374;145;27248;-83
2023/12/30 00:09:44;;;;;;;1.50;1.33;;;12.60;96.60;;;;;;961874;145;27309;-82
2023/12/30 00:12:10;;;;;;;2.90;1.37;;;12.60;96.70;;;;;;961342;145;27327;-83
2023/12/30 00:14:37;;;;;;;2.35;1.35;;;12.60;96.80;;;;;;960567;145;27420;-81
2023/12/30 00:17:04;;;;;;;2.65;1.07;;;12.60;96.70;;;;;;960648;145;27268;-81
2023/12/30 00:19:33;;;;;;;1.60;1.47;;;12.60;96.60;;;;;;961809;146;27413;-80
2023/12/30 00:21:57;;;;;;;1.75;1.50;;;12.60;96.50;;;;;;961493;145;27416;-82
2023/12/30 00:24:23;;;;;;;2.02;1.30;;;12.60;96.40;;;;;;962434;145;27346;-81
2023/12/30 00:26:50;;;;;;;2.40;1.20;;;12.70;96.30;;;;;;960527;145;27511;-79
2023/12/30 00:29:17;;;;;;;1.25;1.12;;;12.60;96.10;;;;;;960446;145;27362;-83
2023/12/30 00:31:43;;;;;;;1.00;0.97;;;12.60;96.00;;;;;;962402;145;27373;-82
2023/12/30 00:34:10;;;;;;;5.03;1.53;;;12.60;96.00;;;;;;962050;145;27326;-82
2023/12/30 00:36:36;;;;;;;1.60;1.27;;;12.60;95.90;;;;;;960981;147;27251;-83
2023/12/30 00:39:03;;;;;;;1.60;1.20;;;12.60;95.90;;;;;;958724;147;27382;-83
2023/12/30 00:41:30;;;;;;;1.50;1.20;;;12.60;95.70;;;;;;962129;145;27365;-84
2023/12/30 00:43:56;;;;;;;1.47;1.10;;;12.50;95.40;;;;;;962381;145;27259;-83
2023/12/30 00:46:23;;;;;;;1.80;1.40;;;12.50;95.50;;;;;;959353;143;27337;-84
2023/12/30 00:48:49;;;;;;;2.40;1.30;;;12.40;94.90;;;;;;962599;145;27314;-84
2023/12/30 00:51:16;;;;;;;2.00;1.37;;;12.30;94.80;;;;;;960574;145;27256;-85
2023/12/30 00:53:42;;;;;;;2.67;1.23;;;12.30;94.80;;;;;;961392;146;27314;-84
2023/12/30 00:56:09;;;;;;;2.47;1.27;;;12.20;94.80;;;;;;960131;145;27455;-85
2023/12/30 00:58:36;;;;;;;2.73;1.23;;;12.10;94.80;;;;;;959885;145;27269;-84
2023/12/30 01:01:02;;;;;;;1.50;1.27;;;12.10;94.80;;;;;;957805;145;27324;-84
2023/12/30 01:03:29;;;;;;;0.93;0.93;;;12.00;95.00;;;;;;959698;147;27359;-84
2023/12/30 01:05:55;;;;;;;2.17;1.20;;;11.90;95.40;;;;;;960370;145;27345;-86
2023/12/30 01:08:22;;;;;;;1.35;1.25;;;11.90;95.60;;;;;;961142;145;27368;-87
2023/12/30 01:10:49;;;;;;;3.27;1.33;;;11.80;95.80;;;;;;961517;146;27375;-86
2023/12/30 01:13:15;;;;;;;2.30;1.07;;;11.80;95.90;;;;;;961599;145;27401;-86
2023/12/30 01:15:42;;;;;;;1.73;1.27;;;11.80;95.90;;;;;;961419;147;27407;-86
2023/12/30 01:18:08;;;;;;;1.10;1.10;;;11.70;95.80;;;;;;962345;145;27326;-86
2023/12/30 01:20:35;;;;;;;1.93;1.20;;;11.70;95.80;;;;;;960506;148;28411;-86
2023/12/30 01:23:02;;;;;;;4.27;1.30;;;11.60;95.80;;;;;;962124;145;27280;-87
2023/12/30 01:25:28;;;;;;;2.10;1.00;;;11.60;96.10;;;;;;960404;146;27347;-87
2023/12/30 01:27:55;;;;;;;2.30;1.60;;;11.50;95.70;;;;;;962129;145;27459;-87
2023/12/30 01:30:21;;;;;;;2.77;1.37;;;11.40;96.10;;;;;;962274;145;28453;-88
2023/12/30 01:32:48;;;;;;;2.13;1.03;;;11.30;95.90;;;;;;962596;145;27251;-87
2023/12/30 01:35:15;;;;;;;1.23;1.00;;;11.30;96.10;;;;;;961906;145;27248;-88
2023/12/30 01:37:41;;;;;;;2.97;1.10;;;11.30;96.30;;;;;;961514;145;27412;-83
2023/12/30 01:40:08;;;;;;;1.60;1.37;;;11.20;96.30;;;;;;961723;144;27411;-79
2023/12/30 01:42:35;;;;;;;2.77;1.13;;;11.10;96.40;;;;;;959502;145;27232;-80
2023/12/30 01:45:01;;;;;;;2.87;1.30;;;11.10;96.60;;;;;;959869;146;27291;-79
2023/12/30 01:47:27;;;;;;;2.50;1.30;;;11.00;96.80;;;;;;961568;147;27296;-82
2023/12/30 01:49:54;;;;;;;1.77;1.20;;;11.00;97.20;;;;;;962796;145;27368;-81
2023/12/30 01:52:21;;;;;;;2.80;1.67;;;11.00;97.80;;;;;;961754;145;27369;-80
2023/12/30 01:54:47;;;;;;;1.77;1.47;;;11.00;98.20;;;;;;960629;145;27372;-81
2023/12/30 01:57:14;;;;;;;2.13;1.20;;;11.00;98.50;;;;;;961939;145;27293;-83
2023/12/30 01:59:40;;;;;;;3.53;1.30;;;11.10;98.80;;;;;;961497;147;27442;-84
2023/12/30 02:02:07;;;;;;;2.13;1.50;;;11.10;98.90;;;;;;963187;145;27335;-81
2023/12/30 02:04:34;;;;;;;1.10;1.10;;;11.20;99.10;;;;;;960699;145;27430;-81
2023/12/30 02:07:00;;;;;;;1.63;1.00;;;11.20;99.00;;;;;;964252;144;27323;-80
2023/12/30 02:09:27;;;;;;;2.87;0.90;;;11.30;98.90;;;;;;964889;144;27837;-82
2023/12/30 02:11:53;;;;;;;1.43;1.20;;;11.40;98.50;;;;;;966981;144;27482;-79
2023/12/30 02:14:26;;;;;;;2.17;1.30;;;11.40;98.00;;;;;;966261;144;27308;-79
2023/12/30 02:16:52;;;;;;;1.50;1.17;;;11.40;97.50;;;;;;965451;144;27329;-81
2023/12/30 02:19:19;;;;;;;3.97;1.03;;;11.40;97.10;;;;;;964956;144;27314;-85
2023/12/30 02:21:46;;;;;;;2.00;1.20;;;11.40;96.90;;;;;;964362;147;27337;-80
2023/12/30 02:24:12;;;;;;;1.07;0.80;;;11.40;96.70;;;;;;966855;144;27296;-81
2023/12/30 02:26:39;;;;;;;3.33;1.20;;;11.30;96.50;;;;;;962754;144;27362;-80
2023/12/30 02:29:05;;;;;;;1.73;1.10;;;11.30;96.40;;;;;;967813;144;27348;-81
2023/12/30 02:31:32;;;;;;;0.83;0.83;;;11.30;96.90;;;;;;962510;144;27330;-80
2023/12/30 02:33:58;;;;;;;1.07;0.93;;;11.20;96.80;;;;;;963327;144;27351;-80
2023/12/30 02:36:25;;;;;;;2.70;1.00;;;11.20;96.90;;;;;;965013;144;27317;-79
2023/12/30 02:38:52;;;;;;;1.57;0.90;;;11.20;97.00;;;;;;963762;144;27367;-79
2023/12/30 02:41:18;;;;;;;2.07;0.93;;;11.10;97.10;;;;;;965023;144;27311;-81
2023/12/30 02:43:57;;;;;;;1.50;1.00;;;11.10;97.00;;;;;;964579;144;27430;-78
2023/12/30 02:46:23;;;;;;;2.73;0.90;;;11.10;97.00;;;;;;960419;147;27835;-80
2023/12/30 02:48:50;;;;;;;1.73;1.20;;;11.10;96.80;;;;;;964393;147;27391;-79
2023/12/30 02:51:17;;;;;;;2.50;1.33;;;11.00;96.90;;;;;;966028;144;27254;-82
2023/12/30 02:53:43;;;;;;;2.43;1.10;;;11.00;97.00;;;;;;967650;144;27340;-79
2023/12/30 02:56:18;;;;;;;2.87;1.13;;;11.00;97.10;;;;;;963932;144;27335;-79
2023/12/30 02:58:45;;;;;;;1.80;0.97;;;10.90;97.30;;;;;;964295;144;27279;-80
2023/12/30 03:01:12;;;;;;;1.70;1.07;;;10.90;97.40;;;;;;963054;144;27730;-80
2023/12/30 03:03:38;;;;;;;1.93;1.20;;;10.90;97.80;;;;;;964011;144;27417;-81
2023/12/30 03:06:05;;;;;;;3.73;1.37;;;10.90;97.90;;;;;;963451;147;27391;-79
2023/12/30 03:08:31;;;;;;;2.17;0.90;;;10.90;98.10;;;;;;964193;147;27398;-79
2023/12/30 03:10:58;;;;;;;3.33;1.50;;;10.80;98.20;;;;;;966104;143;27275;-79
2023/12/30 03:13:25;;;;;;;2.27;1.40;;;10.90;98.30;;;;;;964758;144;27322;-82
2023/12/30 03:15:51;;;;;;;1.60;1.07;;;10.90;98.40;;;;;;964893;144;27355;-79
2023/12/30 03:18:18;;;;;;;1.73;1.20;;;10.90;98.50;;;;;;965214;147;27392;-81
2023/12/30 03:20:44;;;;;;;2.00;1.07;;;10.90;98.70;;;;;;963624;144;27283;-81
2023/12/30 03:23:11;;;;;;;1.80;1.00;;;10.80;99.00;;;;;;965614;143;27357;-81
2023/12/30 03:25:38;;;;;;;2.83;1.27;;;10.90;99.30;;;;;;966785;147;27407;-83
2023/12/30 03:28:04;;;;;;;1.40;1.00;;;10.90;99.50;;;;;;966292;146;27425;-81
2023/12/30 03:30:31;;;;;;;2.27;1.50;;;11.00;99.40;;;;;;964521;145;27304;-80
2023/12/30 03:32:57;;;;;;;1.90;1.00;;;11.00;99.30;;;;;;964576;144;27313;-81
2023/12/30 03:35:24;;;;;;;3.20;1.20;;;11.00;99.40;;;;;;964586;144;27975;-82
2023/12/30 03:37:50;;;;;;;1.17;0.80;;;11.00;99.50;;;;;;966638;143;27414;-80
2023/12/30 03:40:17;;;;;;;3.23;1.37;;;11.00;99.60;;;;;;965696;144;27291;-80
2023/12/30 03:42:44;;;;;;;4.67;1.40;;;11.10;99.90;;;;;;963990;144;27294;-81
2023/12/30 03:45:10;;;;;;;2.17;1.40;;;11.10;99.50;;;;;;965280;144;27319;-82
2023/12/30 03:47:37;;;;;;;1.57;1.10;;;11.10;99.20;;;;;;964431;144;27316;-80
2023/12/30 03:50:03;;;;;;;1.10;1.00;;;11.10;99.10;;;;;;965362;144;27248;-81
2023/12/30 03:52:30;;;;;;;2.10;1.00;;;11.20;99.00;;;;;;964166;144;27304;-82
2023/12/30 03:54:57;;;;;;;1.73;1.10;;;11.10;99.00;;;;;;966100;144;27333;-82
2023/12/30 03:57:23;;;;;;;1.50;1.40;;;11.10;99.00;;;;;;965202;144;27328;-81
2023/12/30 03:59:50;;;;;;;1.93;1.30;;;11.10;99.20;;;;;;966463;147;27229;-83
2023/12/30 04:02:20;;;;;;;1.27;1.17;;;11.10;99.40;;;;;;964296;144;27394;-83
2023/12/30 04:04:43;;;;;;;1.33;1.20;;;11.10;99.30;;;;;;964644;144;27296;-83
2023/12/30 04:07:09;;;;;;;2.40;1.13;;;11.10;99.90;;;;;;967094;144;27371;-83
2023/12/30 04:09:36;;;;;;;2.03;1.00;;;11.20;99.90;;;;;;964710;145;27406;-83
2023/12/30 04:12:03;;;;;;;2.93;1.87;;;11.20;99.90;;;;;;964071;147;27310;-85
2023/12/30 04:14:29;;;;;;;2.13;1.20;;;11.20;99.90;;;;;;963963;144;27282;-84
2023/12/30 04:16:56;;;;;;;4.13;1.20;;;11.30;99.90;;;;;;963548;144;27287;-84
2023/12/30 04:19:22;;;;;;;3.13;1.57;;;11.40;99.90;;;;;;962482;144;27362;-86
2023/12/30 04:21:49;;;;;;;2.57;1.30;;;11.40;99.90;;;;;;964421;147;27273;-86
2023/12/30 04:24:16;;;;;;;3.83;1.20;;;11.50;99.90;;;;;;965795;147;27239;-87
2023/12/30 04:26:43;;;;;;;4.53;1.07;;;11.50;99.90;;;;;;965719;146;27291;-85
2023/12/30 04:29:09;;;;;;;2.07;1.40;;;11.60;99.90;;;;;;963314;144;27355;-84
2023/12/30 04:31:35;;;;;;;2.63;1.50;;;11.60;99.90;;;;;;967020;146;27354;-86
2023/12/30 04:34:02;;;;;;;2.73;1.20;;;11.70;99.80;;;;;;967676;144;27275;-87
2023/12/30 04:36:28;;;;;;;1.77;1.17;;;11.70;99.70;;;;;;963366;144;27372;-86
2023/12/30 04:38:55;;;;;;;1.40;1.10;;;11.70;99.50;;;;;;965117;147;27271;-87
2023/12/30 04:41:22;;;;;;;1.83;1.10;;;11.80;99.40;;;;;;964719;146;27494;-87
2023/12/30 04:43:48;;;;;;;3.23;1.23;;;11.80;99.40;;;;;;965099;147;27376;-87
2023/12/30 04:46:15;;;;;;;3.17;1.20;;;11.80;99.40;;;;;;963831;144;27431;-87
2023/12/30 04:48:41;;;;;;;1.90;1.10;;;11.90;99.50;;;;;;961705;144;27278;-86
2023/12/30 04:51:08;;;;;;;2.42;1.22;;;11.90;99.40;;;;;;966251;146;27336;-88
2023/12/30 04:53:35;;;;;;;1.57;1.17;;;11.90;99.30;;;;;;964600;144;27323;-87
2023/12/30 04:56:01;;;;;;;2.93;1.17;;;12.00;99.30;;;;;;966572;144;27363;-86
2023/12/30 04:58:28;;;;;;;3.10;1.10;;;12.00;99.30;;;;;;963486;145;27369;-87
2023/12/30 05:00:56;;;;;;;1.47;1.30;;;12.00;99.30;;;;;;966338;144;27258;-85
2023/12/30 05:03:21;;;;;;;1.70;1.10;;;12.00;99.20;;;;;;964460;144;27431;-86
2023/12/30 05:05:48;;;;;;;1.50;1.12;;;12.00;99.00;;;;;;963581;144;27365;-85
2023/12/30 05:08:14;;;;;;;4.37;1.20;;;12.10;99.00;;;;;;946903;147;27368;-86
2023/12/30 05:10:41;;;;;;;1.63;1.07;;;12.10;99.00;;;;;;944783;148;27257;-83
2023/12/30 05:13:07;;;;;;;2.90;1.35;;;12.10;98.80;;;;;;944861;148;27399;-80
2023/12/30 05:15:34;;;;;;;1.30;1.10;;;12.10;98.70;;;;;;944567;145;27336;-80
2023/12/30 05:18:01;;;;;;;3.92;1.37;;;12.10;98.60;;;;;;945628;148;27293;-81
2023/12/30 05:20:27;;;;;;;2.47;1.20;;;12.10;98.50;;;;;;944974;148;27632;-83
2023/12/30 05:22:54;;;;;;;1.20;1.10;;;12.10;98.40;;;;;;946186;148;27421;-82
2023/12/30 05:25:20;;;;;;;1.97;1.40;;;12.10;98.30;;;;;;944543;148;27333;-81
2023/12/30 05:27:47;;;;;;;3.22;1.50;;;12.10;98.30;;;;;;946911;148;27301;-81
2023/12/30 05:30:13;;;;;;;2.65;1.30;;;12.10;98.30;;;;;;946554;148;27365;-84
2023/12/30 05:32:40;;;;;;;3.33;1.40;;;12.10;98.30;;;;;;946072;148;27449;-84
2023/12/30 05:35:07;;;;;;;2.00;1.47;;;12.10;98.40;;;;;;945360;148;27409;-82
2023/12/30 05:37:33;;;;;;;2.70;1.30;;;12.10;98.40;;;;;;943813;146;27374;-83
2023/12/30 05:40:00;;;;;;;2.27;1.40;;;12.10;98.40;;;;;;946143;148;27389;-85
2023/12/30 05:42:26;;;;;;;1.77;1.03;;;12.10;98.40;;;;;;946595;148;27291;-85
2023/12/30 05:44:53;;;;;;;1.10;0.90;;;12.10;98.40;;;;;;944324;148;27331;-83
2023/12/30 05:47:20;;;;;;;1.50;1.30;;;12.10;98.40;;;;;;944985;148;27410;-83
2023/12/30 05:49:46;;;;;;;1.67;1.00;;;12.10;98.40;;;;;;944132;148;27254;-84
2023/12/30 05:52:13;;;;;;;3.42;1.37;;;12.10;98.40;;;;;;944623;144;27384;-84
2023/12/30 05:54:39;;;;;;;3.22;1.30;;;12.10;98.40;;;;;;940508;148;27333;-85
2023/12/30 05:57:06;;;;;;;2.27;1.77;;;12.10;98.40;;;;;;943817;148;27308;-85
2023/12/30 05:59:32;;;;;;;2.72;1.75;;;12.10;98.30;;;;;;944143;145;27256;-84
2023/12/30 06:01:59;;;;;;;3.47;1.50;;;12.20;98.30;;;;;;944403;148;27241;-82
2023/12/30 06:04:26;;;;;;;2.77;1.20;;;12.10;98.30;;;;;;941574;148;27308;-81
2023/12/30 06:06:52;;;;;;;3.67;1.73;;;12.20;98.30;;;;;;942573;148;27357;-79
2023/12/30 06:09:19;;;;;;;3.97;1.30;;;12.10;98.40;;;;;;945693;150;27280;-79
2023/12/30 06:11:45;;;;;;;2.65;1.12;;;12.10;98.30;;;;;;946702;149;27316;-80
2023/12/30 06:14:12;;;;;;;1.55;1.27;;;12.20;98.30;;;;;;946857;150;27301;-79
2023/12/30 06:16:39;;;;;;;2.87;1.60;;;12.10;98.50;;;;;;946569;147;27339;-83
2023/12/30 06:19:05;;;;;;;2.07;1.50;;;12.10;98.60;;;;;;946906;150;27341;-79
2023/12/30 06:21:32;;;;;;;1.32;1.20;;;12.20;98.90;;;;;;946878;150;27346;-85
2023/12/30 06:23:58;;;;;;;2.07;1.50;;;12.20;99.10;;;;;;947201;150;27347;-87
2023/12/30 06:26:25;;;;;;;5.20;1.75;;;12.20;99.20;;;;;;948212;150;27268;-85
2023/12/30 06:28:52;;;;;;;5.30;1.67;;;12.20;99.30;;;;;;947443;149;27339;-87
2023/12/30 06:31:18;;;;;;;2.30;1.37;;;12.20;99.50;;;;;;947826;150;27257;-87
2023/12/30 06:33:45;;;;;;;4.60;1.70;;;12.20;99.70;;;;;;946025;147;27455;-86
2023/12/30 06:36:11;;;;;;;2.13;1.43;;;12.20;99.70;;;;;;945259;150;27245;-87
2023/12/30 06:38:38;;;;;;;2.42;1.52;;;12.20;99.80;;;;;;944582;149;27344;-87
2023/12/30 06:41:07;;;;;;;3.47;1.90;;;12.20;99.90;;;;;;948196;149;27323;-86
2023/12/30 06:43:34;;;;;;;4.67;1.67;;;12.20;99.80;;;;;;948144;150;27409;-86
2023/12/30 06:46:00;;;;;;;4.03;1.40;;;12.20;99.80;;;;;;948727;150;27272;-87
2023/12/30 06:48:27;;;;;;;3.60;1.30;;;12.20;99.80;;;;;;947903;149;27351;-84
2023/12/30 06:50:54;;;;;;;4.60;1.90;;;12.20;99.90;;;;;;947535;149;27360;-87
2023/12/30 06:53:20;;;;;;;4.20;1.57;;;12.20;99.90;;;;;;945921;150;27308;-87
2023/12/30 06:55:47;;;;;;;2.63;1.60;;;12.20;99.90;;;;;;947658;150;27224;-87
2023/12/30 06:58:13;;;;;;;4.12;1.57;;;12.20;99.90;;;;;;948682;147;27319;-85
2023/12/30 07:00:40;;;;;;;4.05;1.62;;;12.30;99.90;;;;;;946966;147;27323;-85
2023/12/30 07:03:07;;;;;;;2.77;1.60;;;12.30;99.90;;;;;;947815;149;27386;-85
2023/12/30 07:05:35;;;;;;;3.90;1.82;;;12.20;99.90;;;;;;947657;147;27269;-85
2023/12/30 07:08:00;;;;;;;3.60;1.60;;;12.30;99.90;;;;;;946928;146;27457;-85
2023/12/30 07:10:26;;;;;;;5.10;1.50;;;12.30;99.90;;;;;;946034;147;27369;-84
2023/12/30 07:12:53;;;;;;;2.47;1.47;;;12.20;99.90;;;;;;949623;150;27442;-85
2023/12/30 07:15:20;;;;;;;2.53;1.50;;;12.20;99.60;;;;;;947599;150;27291;-84
2023/12/30 07:17:48;;;;;;;3.57;1.60;;;12.20;99.40;;;;;;947828;149;27382;-84
2023/12/30 07:20:13;;;;;;;3.43;1.20;;;12.10;99.10;;;;;;948182;147;27301;-84
2023/12/30 07:22:39;;;;;;;5.40;1.50;;;12.10;99.20;;;;;;945407;150;27315;-82
2023/12/30 07:25:06;;;;;;;3.17;1.60;;;12.10;99.20;;;;;;947816;150;27282;-86
2023/12/30 07:27:32;;;;;;;2.70;1.57;;;12.10;99.30;;;;;;947908;150;27297;-87
2023/12/30 07:29:59;;;;;;;1.00;1.00;;;12.00;99.10;;;;;;947928;150;27349;-83
2023/12/30 07:32:26;;;;;;;1.70;1.30;;;12.00;98.90;;;;;;945612;150;27292;-82
2023/12/30 07:34:52;;;;;;;1.43;1.10;;;12.00;98.80;;;;;;946239;150;27344;-84
2023/12/30 07:37:19;;;;;;;1.87;0.97;;;11.90;98.60;;;;;;945436;150;27374;-85
2023/12/30 07:39:45;;;;;;;1.20;1.10;;;11.90;98.30;;;;;;949239;147;27235;-84
2023/12/30 07:42:12;;;;;;;2.47;1.20;;;11.80;98.10;;;;;;947934;147;27395;-81
2023/12/30 07:44:39;;;;;;;6.13;1.47;;;11.70;98.10;;;;;;946474;147;27401;-79
2023/12/30 07:47:08;;;;;;;3.80;1.27;;;11.70;98.10;;;;;;946667;150;27270;-80
2023/12/30 07:49:35;;;;;;;2.10;1.10;;;11.60;98.10;;;;;;946547;149;27407;-81
2023/12/30 07:52:01;;;;;;;1.90;1.20;;;11.50;98.20;;;;;;947555;150;27438;-80
2023/12/30 07:54:27;;;;;;;1.93;1.10;;;11.50;98.60;;;;;;947973;149;27344;-80
2023/12/30 07:56:54;;;;;;;2.43;1.00;;;11.40;98.40;;;;;;950304;150;27366;-80
2023/12/30 07:59:21;;;;;;;2.63;1.60;;;11.40;98.50;;;;;;947086;150;27355;-80
2023/12/30 08:01:47;;;;;;;3.73;1.30;;;11.40;98.90;;;;;;948029;150;27341;-82
2023/12/30 08:04:14;;;;;;;2.40;1.00;;;11.30;99.40;;;;;;946290;150;27352;-79
2023/12/30 08:06:40;;;;;;;2.45;1.70;;;11.30;99.90;;;;;;947101;147;27319;-81
2023/12/30 08:09:07;;;;;;;1.70;1.17;;;11.30;99.90;;;;;;954358;146;27414;-80
2023/12/30 08:11:36;;;;;;;2.17;1.20;;;11.40;99.90;;;;;;961959;147;27287;-81
2023/12/30 08:14:03;;;;;;;3.23;1.17;;;11.50;99.90;;;;;;962273;145;27415;-80
2023/12/30 08:16:30;;;;;;;2.10;1.10;;;11.50;99.90;;;;;;962504;147;27385;-80
2023/12/30 08:18:56;;;;;;;2.93;0.90;;;11.60;99.90;;;;;;960634;145;27293;-81
2023/12/30 08:21:23;;;;;;;1.60;1.23;;;11.70;99.90;;;;;;962138;147;27331;-83
2023/12/30 08:23:49;;;;;;;2.50;1.37;;;11.70;99.90;;;;;;964443;143;27423;-80
2023/12/30 08:26:16;;;;;;;2.03;1.00;;;11.80;99.90;;;;;;962941;145;27297;-81
2023/12/30 08:28:43;;;;;;;2.23;0.90;;;11.90;99.90;;;;;;962859;145;27211;-81
2023/12/30 08:31:10;;;;;;;2.10;1.30;;;11.90;99.90;;;;;;961625;145;27381;-81
2023/12/30 08:33:36;;;;;;;2.40;1.35;;;12.00;99.90;;;;;;960694;145;27423;-84
2023/12/30 08:36:02;;;;;;;2.58;1.37;;;12.00;99.90;;;;;;961303;145;27251;-83
2023/12/30 08:38:31;;;;;;;3.00;1.43;;;12.10;99.90;;;;;;961437;145;27384;-81
2023/12/30 08:40:55;;;;;;;3.87;1.60;;;12.10;99.90;;;;;;961674;145;27292;-82
2023/12/30 08:43:22;;;;;;;4.07;1.60;;;12.20;99.90;;;;;;961277;146;27428;-83
2023/12/30 08:45:49;;;;;;;4.35;1.52;;;12.20;99.90;;;;;;959609;143;27336;-81
2023/12/30 08:48:15;;;;;;;3.10;1.37;;;12.30;99.90;;;;;;963536;145;27342;-81
2023/12/30 08:50:44;;;;;;;3.80;1.57;;;12.30;99.90;;;;;;959021;145;27276;-80
2023/12/30 08:53:08;;;;;;;4.33;1.80;;;12.40;99.90;;;;;;962236;145;27358;-83
2023/12/30 08:55:35;;;;;;;4.62;1.50;;;12.40;99.90;;;;;;962472;145;27418;-81
2023/12/30 08:58:02;;;;;;;3.63;1.63;;;12.50;99.90;;;;;;960427;147;27359;-81
2023/12/30 09:00:28;;;;;;;5.83;2.07;;;12.60;99.90;;;;;;958782;147;27303;-82
2023/12/30 09:02:55;;;;;;;2.70;1.47;;;12.60;99.90;;;;;;960958;147;27279;-81
2023/12/30 09:05:21;;;;;;;1.57;1.42;;;12.70;99.90;;;;;;961851;143;27450;-81
2023/12/30 09:07:51;;;;;;;4.35;2.15;;;12.70;99.90;;;;;;961470;145;27436;-81
2023/12/30 09:10:17;;;;;;;3.40;2.33;;;12.90;99.90;;;;;;952654;147;27329;-81
2023/12/30 09:12:47;;;;;;;2.30;1.80;;;12.90;99.90;;;;;;947120;147;27253;-81
2023/12/30 09:15:13;;;;;;;3.45;1.85;;;13.00;99.90;;;;;;948466;150;27410;-82
2023/12/30 09:17:40;;;;;;;5.78;2.10;;;13.00;99.90;;;;;;947573;149;27955;-81
2023/12/30 09:20:06;;;;;;;4.50;2.03;;;13.10;99.70;;;;;;947840;150;27337;-81
2023/12/30 09:22:33;;;;;;;2.20;1.65;;;13.10;99.30;;;;;;946585;150;27259;-81
2023/12/30 09:25:00;;;;;;;4.53;1.87;;;13.20;99.10;;;;;;947258;150;27323;-81
2023/12/30 09:27:26;;;;;;;2.10;1.50;;;13.20;98.70;;;;;;948403;150;27372;-80
2023/12/30 09:29:53;;;;;;;5.75;1.85;;;13.30;98.50;;;;;;946295;150;27356;-81
2023/12/30 09:32:19;;;;;;;1.45;1.10;;;13.30;98.30;;;;;;948859;150;28066;-82
2023/12/30 09:34:46;;;;;;;1.90;1.37;;;13.40;98.30;;;;;;948432;150;27353;-83
2023/12/30 09:37:14;;;;;;;4.03;1.60;;;13.40;98.20;;;;;;949019;150;27407;-81
2023/12/30 09:39:39;;;;;;;3.55;1.45;;;13.40;98.20;;;;;;947578;147;27353;-81
2023/12/30 09:42:06;;;;;;;5.15;2.00;;;13.50;98.10;;;;;;948179;150;27267;-82
2023/12/30 09:44:32;;;;;;;2.45;1.57;;;13.50;97.90;;;;;;946628;150;27271;-81
2023/12/30 09:46:59;;;;;;;3.80;1.80;;;13.60;97.90;;;;;;946459;150;27340;-80
2023/12/30 09:49:25;;;;;;;4.37;1.70;;;13.60;97.60;;;;;;949130;150;27733;-81
2023/12/30 09:51:52;;;;;;;2.27;1.47;;;13.70;97.50;;;;;;947823;150;27374;-80
2023/12/30 09:54:19;;;;;;;4.50;1.80;;;13.70;97.50;;;;;;946920;148;27860;-80
2023/12/30 09:56:45;;;;;;;3.75;1.47;;;13.80;97.40;;;;;;947696;147;27422;-83
2023/12/30 09:59:12;;;;;;;2.83;1.50;;;13.80;97.50;;;;;;947023;150;27309;-80
2023/12/30 10:01:38;;;;;;;4.03;1.50;;;13.80;97.50;;;;;;948161;147;27276;-81
2023/12/30 10:04:05;;;;;;;2.90;1.62;;;13.90;97.40;;;;;;947994;147;27273;-82
2023/12/30 10:06:32;;;;;;;2.05;1.37;;;14.00;97.40;;;;;;949152;149;27356;-84
2023/12/30 10:08:59;;;;;;;1.80;1.50;;;14.10;97.30;;;;;;947908;147;27447;-82
2023/12/30 10:11:25;;;;;;;3.77;1.80;;;14.20;97.30;;;;;;960066;144;27305;-82
2023/12/30 10:13:54;;;;;;;5.60;1.85;;;14.20;97.20;;;;;;961551;145;27247;-82
2023/12/30 10:16:18;;;;;;;1.98;1.07;;;14.40;96.60;;;;;;959963;145;27377;-83
2023/12/30 10:18:44;;;;;;;3.42;1.40;;;14.40;96.30;;;;;;961020;144;27345;-82
2023/12/30 10:21:11;;;;;;;20.85;2.98;;;14.50;96.00;;;;;;960484;144;27277;-82
2023/12/30 10:23:38;;;;;;;3.80;1.40;;;14.60;96.00;;;;;;960249;145;27464;-81
2023/12/30 10:26:04;;;;;;;1.37;1.27;;;14.60;95.80;;;;;;962598;144;27248;-83
2023/12/30 10:28:31;;;;;;;2.45;1.80;;;14.80;95.70;;;;;;963415;145;27326;-82
2023/12/30 10:31:03;;;;;;;3.10;1.82;;;14.90;95.60;;;;;;961386;144;27328;-81
2023/12/30 10:33:30;;;;;;;3.33;1.40;;;14.90;95.30;;;;;;960697;145;27344;-82
2023/12/30 10:35:57;;;;;;;1.77;1.30;;;15.00;95.20;;;;;;961736;144;27289;-83
2023/12/30 10:38:23;;;;;;;2.47;1.47;;;15.10;94.80;;;;;;960656;147;27652;-85
2023/12/30 10:40:50;;;;;;;3.35;1.60;;;15.20;94.50;;;;;;960207;144;27380;-82
2023/12/30 10:43:17;;;;;;;3.55;1.30;;;15.30;94.00;;;;;;959169;144;27339;-82
2023/12/30 10:45:43;;;;;;;2.83;1.50;;;15.30;93.20;;;;;;960056;146;27295;-82
2023/12/30 10:48:10;;;;;;;1.95;1.65;;;15.40;92.90;;;;;;961158;145;27408;-82
2023/12/30 10:50:36;;;;;;;2.58;1.30;;;15.40;92.40;;;;;;959334;144;27329;-84
2023/12/30 10:53:03;;;;;;;3.17;1.72;;;15.40;92.20;;;;;;960659;146;28306;-81
2023/12/30 10:55:29;;;;;;;3.42;1.80;;;15.50;91.80;;;;;;962664;145;27401;-82
2023/12/30 10:57:56;;;;;;;4.08;1.75;;;15.50;91.70;;;;;;956441;145;27361;-82
2023/12/30 11:00:22;;;;;;;3.62;1.60;;;15.50;91.60;;;;;;955909;145;27328;-83
2023/12/30 11:02:49;;;;;;;2.37;1.65;;;15.50;91.30;;;;;;961517;145;27422;-87
2023/12/30 11:05:18;;;;;;;2.37;1.35;;;15.50;91.20;;;;;;962771;145;27404;-86
2023/12/30 11:07:45;;;;;;;4.50;2.20;;;15.50;91.10;;;;;;960845;145;27737;-86
2023/12/30 11:10:17;;;;;;;2.15;1.62;;;15.50;91.10;;;;;;962436;147;27315;-86
2023/12/30 11:12:44;;;;;;;2.15;1.27;;;15.50;90.90;;;;;;964707;147;27277;-81
2023/12/30 11:15:23;;;;;;;3.52;1.37;;;15.50;90.50;;;;;;966241;146;27251;-81
2023/12/30 11:17:49;;;;;;;2.33;1.40;;;15.50;90.60;;;;;;964457;144;27291;-82
2023/12/30 11:20:25;;;;;;;2.72;1.40;;;15.50;90.40;;;;;;966053;145;27352;-83
2023/12/30 11:22:54;;;;;;;1.98;1.57;;;15.50;90.00;;;;;;963138;145;27334;-81
2023/12/30 11:25:21;;;;;;;3.05;1.30;;;15.50;89.70;;;;;;963479;144;27401;-82
2023/12/30 11:27:47;;;;;;;5.30;1.90;;;15.50;89.20;;;;;;965547;147;27291;-82
2023/12/30 11:30:20;;;;;;;4.35;1.50;;;15.50;88.40;;;;;;963845;144;27394;-82
2023/12/30 11:32:46;;;;;;;2.75;1.50;;;15.40;87.80;;;;;;964376;144;27458;-81
2023/12/30 11:35:13;;;;;;;2.55;1.35;;;15.30;87.50;;;;;;964139;144;27272;-81
2023/12/30 11:37:40;;;;;;;3.62;1.30;;;15.30;87.50;;;;;;964607;144;27274;-82
2023/12/30 11:40:07;;;;;;;4.17;1.57;;;15.20;87.60;;;;;;965493;147;27313;-82
2023/12/30 11:42:33;;;;;;;1.40;1.30;;;15.10;87.90;;;;;;965294;144;27367;-81
2023/12/30 11:44:59;;;;;;;3.80;1.40;;;15.10;88.20;;;;;;966993;144;27247;-81
2023/12/30 11:47:28;;;;;;;2.05;1.20;;;15.00;88.30;;;;;;963260;146;27352;-82
2023/12/30 11:49:53;;;;;;;3.58;1.47;;;15.00;87.90;;;;;;964170;144;27235;-82
2023/12/30 11:52:19;;;;;;;3.52;1.67;;;14.90;87.50;;;;;;963687;144;27314;-84
2023/12/30 11:54:46;;;;;;;5.45;1.70;;;14.90;87.50;;;;;;966022;147;27337;-80
2023/12/30 11:57:14;;;;;;;9.98;2.42;;;14.90;87.70;;;;;;963664;147;27208;-82
2023/12/30 11:59:39;;;;;;;3.40;1.30;;;14.80;87.70;;;;;;962798;145;27613;-81
2023/12/30 12:02:08;;;;;;;1.90;1.17;;;14.80;87.80;;;;;;966944;144;27255;-83
2023/12/30 12:04:35;;;;;;;2.75;1.67;;;14.70;88.00;;;;;;964261;146;27447;-81
2023/12/30 12:07:02;;;;;;;2.08;1.65;;;14.70;88.30;;;;;;964329;144;27872;-78
2023/12/30 12:09:29;;;;;;;2.15;1.60;;;14.70;88.60;;;;;;966557;147;27355;-78
2023/12/30 12:11:55;;;;;;;3.83;1.85;;;14.70;89.10;;;;;;966081;144;27324;-85
2023/12/30 12:14:21;;;;;;;4.10;1.42;;;14.70;88.90;;;;;;962616;144;27320;-84
2023/12/30 12:16:48;;;;;;;2.12;1.40;;;14.70;88.90;;;;;;964868;144;27342;-86
2023/12/30 12:19:17;;;;;;;2.80;1.35;;;14.70;88.80;;;;;;962316;147;27304;-87
2023/12/30 12:21:44;;;;;;;4.35;1.77;;;14.80;89.00;;;;;;966035;144;27381;-81
2023/12/30 12:24:10;;;;;;;2.77;1.50;;;14.80;88.80;;;;;;965156;144;27256;-81
2023/12/30 12:26:37;;;;;;;2.10;1.67;;;14.80;88.90;;;;;;966153;144;27330;-81
2023/12/30 12:29:06;;;;;;;3.83;1.52;;;14.70;88.80;;;;;;964901;147;27368;-80
2023/12/30 12:31:33;;;;;;;6.10;2.40;;;14.70;88.80;;;;;;966525;146;27259;-80
2023/12/30 12:34:00;;;;;;;3.27;2.10;;;14.70;88.30;;;;;;964270;144;27420;-81
2023/12/30 12:36:26;;;;;;;2.62;1.82;;;14.70;88.30;;;;;;963162;144;27838;-79
2023/12/30 12:38:53;;;;;;;3.72;2.00;;;14.70;87.80;;;;;;964011;144;27271;-79
2023/12/30 12:41:19;;;;;;;2.50;1.42;;;14.70;87.80;;;;;;963807;144;27728;-80
2023/12/30 12:43:46;;;;;;;4.72;2.15;;;14.60;88.00;;;;;;966789;144;27301;-79
2023/12/30 12:46:14;;;;;;;2.40;1.62;;;14.60;88.30;;;;;;964801;147;27425;-79